Time;durP1;ratioP1;P1;durP2;ratioP2;P2;SDS_P1;SDS_P2;PMS_P1;PMS_P2;Temp;Humidity;BMP_temperature;BMP_pressure;BME280_temperature;BME280_humidity;BME280_pressure;Samples;Min_cycle;Max_cycle;Signal;HPM_P1;HPM_P2
2022/07/26 00:02:17;;;;;;;8.05;7.35;;;24.20;99.90;;;;;;5030383;28;20219;-70
2022/07/26 00:04:44;;;;;;;7.63;7.03;;;24.20;99.90;;;;;;5030184;28;20208;-69
2022/07/26 00:07:11;;;;;;;7.65;6.95;;;24.10;99.90;;;;;;5030024;28;20263;-68
2022/07/26 00:09:38;;;;;;;7.68;6.97;;;24.10;99.90;;;;;;5028208;28;20219;-69
2022/07/26 00:12:05;;;;;;;6.95;6.10;;;24.10;99.90;;;;;;5029599;28;20291;-69
2022/07/26 00:14:34;;;;;;;7.05;6.45;;;24.10;99.90;;;;;;5029892;28;20694;-69
2022/07/26 00:17:00;;;;;;;7.35;6.75;;;24.00;99.90;;;;;;5029914;28;20209;-68
2022/07/26 00:19:27;;;;;;;7.63;6.97;;;24.00;99.90;;;;;;5029679;28;20224;-68
2022/07/26 00:24:35;;;;;;;7.00;6.50;;;24.00;99.90;;;;;;5028840;28;20196;-70
2022/07/26 00:27:02;;;;;;;7.25;6.75;;;24.00;99.90;;;;;;5029665;28;20219;-70
2022/07/26 00:29:29;;;;;;;6.85;6.22;;;23.80;99.90;;;;;;5030049;28;20220;-70
2022/07/26 00:31:57;;;;;;;7.22;6.72;;;23.50;99.90;;;;;;5029398;28;20211;-70
2022/07/26 00:34:24;;;;;;;6.93;6.35;;;23.30;99.90;;;;;;5029625;28;20667;-70
2022/07/26 00:36:51;;;;;;;7.10;6.43;;;23.20;99.90;;;;;;5029445;28;20582;-70
2022/07/26 00:39:18;;;;;;;7.25;6.65;;;23.10;99.90;;;;;;5029535;28;20228;-68
2022/07/26 00:41:45;;;;;;;6.72;6.13;;;23.00;99.90;;;;;;5028907;28;20585;-69
2022/07/26 00:44:12;;;;;;;7.13;6.00;;;23.00;99.90;;;;;;5029319;28;20303;-70
2022/07/26 00:46:41;;;;;;;6.85;6.32;;;23.10;99.90;;;;;;5029469;28;20215;-70
2022/07/26 00:49:10;;;;;;;6.80;6.20;;;23.00;99.90;;;;;;5029422;28;20201;-70
2022/07/26 00:51:37;;;;;;;6.57;5.93;;;22.90;99.90;;;;;;5028883;28;20299;-69
2022/07/26 00:54:05;;;;;;;6.70;6.20;;;22.80;99.90;;;;;;5028884;28;20204;-69
2022/07/26 00:56:34;;;;;;;7.40;6.65;;;22.80;99.90;;;;;;5028794;28;20735;-69
2022/07/26 00:59:02;;;;;;;7.28;6.57;;;22.80;99.90;;;;;;5026829;28;20573;-69
2022/07/26 01:01:29;;;;;;;6.60;6.00;;;22.80;99.90;;;;;;5028925;28;20829;-70
2022/07/26 01:03:56;;;;;;;7.05;6.40;;;22.60;99.90;;;;;;5029188;28;20295;-70
2022/07/26 01:06:24;;;;;;;6.65;6.22;;;22.60;99.90;;;;;;5028809;28;20219;-69
2022/07/26 01:08:51;;;;;;;7.10;6.55;;;22.60;99.90;;;;;;5028668;28;20263;-68
2022/07/26 01:11:18;;;;;;;6.57;6.07;;;22.50;99.90;;;;;;5028681;28;20209;-69
2022/07/26 01:13:48;;;;;;;6.28;5.80;;;22.40;99.90;;;;;;5028565;28;20212;-69
2022/07/26 01:16:15;;;;;;;6.53;5.93;;;22.40;99.90;;;;;;5028807;28;20201;-68
2022/07/26 01:18:42;;;;;;;6.05;5.65;;;22.50;99.90;;;;;;5028772;28;20222;-68
2022/07/26 01:21:10;;;;;;;7.82;6.35;;;22.50;99.90;;;;;;5028733;28;20740;-68
2022/07/26 01:23:39;;;;;;;6.50;5.95;;;22.40;99.90;;;;;;5028929;28;20205;-68
2022/07/26 01:26:06;;;;;;;5.75;5.25;;;22.30;99.90;;;;;;5025440;28;20213;-69
2022/07/26 01:28:35;;;;;;;6.20;5.60;;;22.40;99.90;;;;;;5014881;28;20695;-68
2022/07/26 01:31:05;;;;;;;6.53;5.88;;;22.40;99.90;;;;;;5028428;28;20204;-68
2022/07/26 01:33:32;;;;;;;6.20;5.60;;;22.50;99.90;;;;;;5028568;28;20761;-68
2022/07/26 01:35:59;;;;;;;6.18;5.57;;;22.60;99.90;;;;;;5028652;28;20209;-68
2022/07/26 01:38:26;;;;;;;6.25;5.80;;;22.70;99.90;;;;;;5028526;28;20219;-69
2022/07/26 01:40:54;;;;;;;6.32;5.85;;;22.70;99.90;;;;;;5028188;28;20287;-69
2022/07/26 01:43:21;;;;;;;6.35;5.85;;;22.60;99.90;;;;;;5028615;28;20208;-69
2022/07/26 01:45:48;;;;;;;5.85;5.45;;;22.60;99.90;;;;;;5027887;28;20674;-69
2022/07/26 01:48:15;;;;;;;6.82;5.75;;;22.50;99.90;;;;;;5028581;28;20208;-69
2022/07/26 01:50:42;;;;;;;8.00;5.70;;;22.50;99.90;;;;;;5028236;28;20211;-69
2022/07/26 01:53:09;;;;;;;6.00;5.60;;;22.50;99.90;;;;;;5027577;28;20201;-69
2022/07/26 01:55:36;;;;;;;6.05;5.45;;;22.30;99.90;;;;;;5027707;28;20739;-70
2022/07/26 01:58:05;;;;;;;5.95;5.45;;;22.20;99.90;;;;;;5028133;28;20203;-69
2022/07/26 02:00:32;;;;;;;6.43;5.97;;;22.00;99.90;;;;;;5028003;28;20237;-69
2022/07/26 02:02:59;;;;;;;6.45;5.95;;;21.80;99.90;;;;;;5027500;28;20571;-69
2022/07/26 02:05:26;;;;;;;7.10;6.40;;;21.70;99.90;;;;;;5028513;28;20205;-69
2022/07/26 02:07:53;;;;;;;6.25;5.65;;;21.60;99.90;;;;;;5027924;28;20208;-69
2022/07/26 02:10:20;;;;;;;6.28;5.80;;;21.60;99.90;;;;;;5027775;28;20212;-69
2022/07/26 02:12:47;;;;;;;6.78;6.18;;;21.60;99.90;;;;;;5027746;28;20217;-69
2022/07/26 02:15:16;;;;;;;7.93;6.10;;;21.60;99.90;;;;;;5027455;28;20568;-69
2022/07/26 02:17:43;;;;;;;6.20;5.68;;;21.70;99.90;;;;;;5027757;28;20259;-70
2022/07/26 02:20:10;;;;;;;6.50;6.00;;;21.60;99.90;;;;;;5027449;28;20319;-70
2022/07/26 02:22:37;;;;;;;6.40;5.90;;;21.60;99.90;;;;;;5027871;28;20201;-70
2022/07/26 02:25:04;;;;;;;7.05;6.43;;;21.40;99.90;;;;;;5027106;28;20198;-69
2022/07/26 02:27:31;;;;;;;6.45;5.95;;;21.40;99.90;;;;;;5027905;28;20212;-69
2022/07/26 02:29:58;;;;;;;6.28;5.75;;;21.20;99.90;;;;;;5021396;28;20205;-70
2022/07/26 02:32:26;;;;;;;6.57;6.00;;;21.40;99.90;;;;;;5005799;28;20589;-70
2022/07/26 02:34:53;;;;;;;7.93;5.28;;;21.40;99.90;;;;;;5005779;28;20304;-70
2022/07/26 02:37:19;;;;;;;6.28;5.70;;;21.50;99.90;;;;;;5006065;28;20672;-70
2022/07/26 02:39:46;;;;;;;6.15;5.65;;;21.50;99.90;;;;;;5006370;28;20237;-70
2022/07/26 02:42:13;;;;;;;6.70;5.68;;;21.40;99.90;;;;;;5005449;28;20308;-71
2022/07/26 02:44:40;;;;;;;7.22;5.68;;;21.40;99.90;;;;;;5005667;28;20209;-70
2022/07/26 02:47:07;;;;;;;7.50;6.32;;;21.40;99.90;;;;;;5005671;28;20412;-71
2022/07/26 02:49:35;;;;;;;6.20;5.70;;;21.20;99.90;;;;;;5006438;28;20591;-71
2022/07/26 02:52:02;;;;;;;6.45;6.03;;;21.00;99.90;;;;;;5006044;28;20209;-71
2022/07/26 02:54:29;;;;;;;6.72;6.25;;;20.80;99.90;;;;;;5024173;28;20697;-70
2022/07/26 02:56:55;;;;;;;7.17;6.60;;;20.80;99.90;;;;;;5024892;28;20249;-71
2022/07/26 02:59:22;;;;;;;7.30;6.53;;;20.60;99.90;;;;;;5025383;28;20753;-70
2022/07/26 03:01:49;;;;;;;8.10;6.67;;;20.40;99.90;;;;;;5007796;28;20232;-70
2022/07/26 03:04:16;;;;;;;8.33;6.90;;;20.20;99.90;;;;;;5015393;28;20205;-70
2022/07/26 03:06:44;;;;;;;7.10;6.43;;;20.10;99.90;;;;;;5017493;28;20894;-69
2022/07/26 03:09:11;;;;;;;8.17;5.93;;;20.10;99.90;;;;;;5027435;28;20229;-69
2022/07/26 03:11:38;;;;;;;6.80;6.20;;;20.10;99.90;;;;;;5026649;28;20294;-69
2022/07/26 03:14:05;;;;;;;6.97;5.50;;;20.10;99.90;;;;;;5023978;28;20213;-69
2022/07/26 03:16:32;;;;;;;6.40;5.90;;;20.20;99.90;;;;;;5028524;28;20213;-70
2022/07/26 03:19:00;;;;;;;6.77;6.07;;;20.20;99.90;;;;;;5029640;28;20212;-70
2022/07/26 03:21:27;;;;;;;6.10;5.50;;;20.30;99.90;;;;;;5030111;28;20235;-69
2022/07/26 03:23:55;;;;;;;7.13;5.23;;;20.30;99.90;;;;;;5029513;28;20300;-70
2022/07/26 03:26:22;;;;;;;6.10;5.40;;;20.40;99.90;;;;;;5029669;28;20219;-70
2022/07/26 03:28:49;;;;;;;5.87;5.10;;;20.40;99.90;;;;;;5029857;28;20459;-70
2022/07/26 03:31:15;;;;;;;6.47;5.20;;;20.50;99.90;;;;;;5031177;28;20411;-70
2022/07/26 03:33:42;;;;;;;5.73;5.23;;;20.60;99.90;;;;;;5030821;28;20205;-70
2022/07/26 03:36:10;;;;;;;5.97;4.83;;;20.50;99.90;;;;;;5030535;28;20219;-70
2022/07/26 03:38:37;;;;;;;6.30;4.70;;;20.50;99.90;;;;;;5030689;28;20259;-70
2022/07/26 03:41:08;;;;;;;5.63;4.40;;;20.60;99.90;;;;;;5030118;28;20602;-70
2022/07/26 03:43:35;;;;;;;4.88;4.35;;;20.60;99.90;;;;;;5030766;28;20209;-70
2022/07/26 03:46:02;;;;;;;5.90;4.30;;;20.70;99.90;;;;;;5030523;28;20204;-70
2022/07/26 03:48:30;;;;;;;4.47;4.07;;;20.80;99.90;;;;;;5030787;28;20205;-70
2022/07/26 03:50:56;;;;;;;4.87;4.47;;;20.70;99.90;;;;;;5030577;28;20213;-70
2022/07/26 03:53:24;;;;;;;5.50;4.53;;;20.70;99.90;;;;;;5030402;28;20208;-70
2022/07/26 03:58:37;;;;;;;5.68;4.53;;;20.60;99.90;;;;;;5030343;28;20195;-70
2022/07/26 04:01:05;;;;;;;5.95;3.80;;;20.70;99.90;;;;;;5030210;28;20730;-70
2022/07/26 04:03:32;;;;;;;4.75;4.28;;;20.80;99.90;;;;;;5030474;28;20630;-70
2022/07/26 04:05:59;;;;;;;4.68;4.15;;;20.90;99.90;;;;;;5030450;28;20311;-70
2022/07/26 04:08:26;;;;;;;6.18;4.10;;;21.00;99.90;;;;;;5030176;28;20205;-70
2022/07/26 04:10:52;;;;;;;6.23;4.40;;;21.10;99.90;;;;;;5030046;28;20205;-70
2022/07/26 04:13:22;;;;;;;5.22;3.92;;;21.20;99.90;;;;;;5030115;28;20208;-70
2022/07/26 04:15:50;;;;;;;4.30;3.90;;;21.20;99.90;;;;;;5029732;28;20213;-70
2022/07/26 04:18:17;;;;;;;4.32;3.72;;;21.30;99.90;;;;;;5029975;28;20230;-70
2022/07/26 04:20:44;;;;;;;4.57;4.15;;;21.30;99.90;;;;;;5029798;28;20228;-70
2022/07/26 04:23:11;;;;;;;7.13;4.30;;;21.30;99.90;;;;;;5029703;28;20213;-70
2022/07/26 04:25:38;;;;;;;4.30;3.90;;;21.30;99.90;;;;;;5029572;28;20219;-70
2022/07/26 04:28:05;;;;;;;6.63;4.00;;;21.30;99.90;;;;;;5029509;28;20303;-70
2022/07/26 04:30:32;;;;;;;5.40;3.75;;;21.20;99.90;;;;;;5029686;28;20218;-70
2022/07/26 04:33:00;;;;;;;6.30;3.85;;;21.10;99.90;;;;;;5029413;28;20216;-70
2022/07/26 04:35:27;;;;;;;4.70;4.30;;;20.90;99.90;;;;;;5029687;28;20213;-70
2022/07/26 04:37:53;;;;;;;7.13;3.70;;;20.80;99.90;;;;;;5029514;28;20205;-70
2022/07/26 04:40:21;;;;;;;5.30;3.72;;;20.90;99.90;;;;;;5029136;28;20201;-70
2022/07/26 04:42:49;;;;;;;6.07;3.88;;;21.00;99.90;;;;;;5029484;28;20217;-70
2022/07/26 04:45:16;;;;;;;5.15;3.63;;;20.80;99.90;;;;;;5029491;28;20201;-70
2022/07/26 04:47:43;;;;;;;6.47;4.05;;;20.80;99.90;;;;;;5029585;28;20209;-70
2022/07/26 04:50:12;;;;;;;7.53;3.95;;;20.90;99.90;;;;;;5029056;28;20794;-70
2022/07/26 04:52:39;;;;;;;5.73;4.50;;;20.70;99.90;;;;;;5029119;28;20231;-69
2022/07/26 04:55:07;;;;;;;5.27;4.20;;;20.50;99.90;;;;;;5028433;28;20267;-70
2022/07/26 04:57:34;;;;;;;5.13;4.63;;;20.50;99.90;;;;;;5028848;28;20237;-70
2022/07/26 05:00:02;;;;;;;5.80;4.13;;;20.50;99.90;;;;;;5022213;28;20202;-70
2022/07/26 05:02:29;;;;;;;7.80;4.93;;;20.40;99.90;;;;;;5027546;28;20243;-70
2022/07/26 05:04:56;;;;;;;5.33;4.83;;;20.30;99.90;;;;;;5028769;28;20209;-70
2022/07/26 05:07:24;;;;;;;6.53;4.30;;;20.30;99.90;;;;;;5029190;28;20566;-70
2022/07/26 05:09:51;;;;;;;6.57;4.70;;;20.20;99.90;;;;;;5028897;28;20209;-70
2022/07/26 05:12:18;;;;;;;6.47;4.80;;;20.30;99.90;;;;;;5028779;28;20220;-70
2022/07/26 05:14:45;;;;;;;6.20;4.80;;;20.30;99.90;;;;;;5029086;28;20209;-70
2022/07/26 05:17:12;;;;;;;6.87;4.10;;;20.30;99.90;;;;;;5029013;28;20214;-70
2022/07/26 05:19:38;;;;;;;6.57;4.93;;;20.20;99.90;;;;;;5028913;28;20300;-70
2022/07/26 05:22:05;;;;;;;7.53;4.67;;;20.00;99.90;;;;;;5028781;28;20228;-70
2022/07/26 05:24:33;;;;;;;6.37;4.27;;;20.20;99.90;;;;;;5028472;28;20739;-70
2022/07/26 05:27:00;;;;;;;5.40;4.40;;;20.10;99.90;;;;;;5028352;28;20574;-69
2022/07/26 05:29:27;;;;;;;7.83;4.40;;;20.10;99.90;;;;;;5028801;28;20208;-70
2022/07/26 05:31:54;;;;;;;4.27;3.87;;;20.10;99.90;;;;;;5028371;28;20215;-70
2022/07/26 05:34:21;;;;;;;4.33;3.93;;;20.10;99.90;;;;;;5028509;28;20205;-70
2022/07/26 05:36:48;;;;;;;5.87;3.97;;;20.20;99.90;;;;;;5028472;28;20213;-69
2022/07/26 05:39:15;;;;;;;5.70;4.00;;;20.30;99.90;;;;;;5027384;28;20692;-70
2022/07/26 05:41:43;;;;;;;8.43;3.70;;;20.20;99.90;;;;;;5028145;28;20235;-70
2022/07/26 05:44:10;;;;;;;6.83;3.83;;;20.20;99.90;;;;;;5028243;28;20250;-70
2022/07/26 05:46:37;;;;;;;5.60;3.53;;;20.20;99.90;;;;;;5028030;28;20670;-70
2022/07/26 05:49:04;;;;;;;10.50;3.83;;;20.30;99.90;;;;;;5028414;28;20205;-70
2022/07/26 05:51:31;;;;;;;6.90;3.23;;;20.40;99.90;;;;;;5028487;28;20290;-70
2022/07/26 05:53:59;;;;;;;5.97;3.73;;;20.40;99.90;;;;;;5027881;28;20213;-70
2022/07/26 05:56:26;;;;;;;3.47;3.00;;;20.40;99.90;;;;;;5027526;28;20650;-70
2022/07/26 05:58:54;;;;;;;5.97;3.17;;;20.40;99.90;;;;;;5027774;28;20675;-70
2022/07/26 06:01:20;;;;;;;8.73;3.67;;;20.40;99.90;;;;;;5028108;28;20402;-70
2022/07/26 06:03:47;;;;;;;4.97;2.83;;;20.50;99.90;;;;;;5028147;28;20224;-70
2022/07/26 06:06:14;;;;;;;5.30;2.80;;;20.40;99.90;;;;;;5027956;28;20742;-70
2022/07/26 06:08:41;;;;;;;7.73;2.87;;;20.40;99.90;;;;;;5027891;28;20208;-70
2022/07/26 06:11:07;;;;;;;5.70;2.77;;;20.30;99.90;;;;;;5027638;28;20998;-70
2022/07/26 06:13:34;;;;;;;12.37;3.60;;;20.30;99.90;;;;;;5028077;28;20205;-69
2022/07/26 06:16:05;;;;;;;4.97;2.70;;;20.30;99.90;;;;;;5027933;28;20200;-70
2022/07/26 06:18:32;;;;;;;7.10;2.70;;;20.30;99.90;;;;;;5027731;28;20584;-69
2022/07/26 06:20:59;;;;;;;5.43;2.80;;;20.40;99.90;;;;;;5027691;28;20233;-69
2022/07/26 06:23:26;;;;;;;5.13;2.40;;;20.40;99.90;;;;;;5027525;28;20213;-70
2022/07/26 06:25:52;;;;;;;4.47;2.70;;;20.50;99.90;;;;;;5027533;28;20299;-70
2022/07/26 06:28:19;;;;;;;5.83;2.60;;;20.40;99.90;;;;;;5027552;28;20663;-70
2022/07/26 06:30:46;;;;;;;6.30;2.57;;;20.40;99.90;;;;;;5027628;28;20213;-69
2022/07/26 06:33:14;;;;;;;5.17;2.50;;;20.50;99.90;;;;;;5027800;28;20208;-70
2022/07/26 06:35:41;;;;;;;9.03;3.30;;;20.60;99.90;;;;;;5027751;28;20211;-70
2022/07/26 06:38:08;;;;;;;8.60;2.80;;;20.60;99.90;;;;;;5027617;28;20215;-70
2022/07/26 06:40:35;;;;;;;5.90;2.40;;;20.50;99.90;;;;;;5027507;28;20215;-70
2022/07/26 06:43:03;;;;;;;6.27;2.50;;;20.50;99.90;;;;;;5027110;28;20235;-71
2022/07/26 06:45:30;;;;;;;4.77;2.40;;;20.60;99.90;;;;;;5027585;28;20204;-70
2022/07/26 06:47:57;;;;;;;5.43;2.60;;;20.70;99.90;;;;;;5027379;28;20216;-70
2022/07/26 06:50:25;;;;;;;4.57;2.47;;;20.60;99.90;;;;;;5028085;28;20205;-70
2022/07/26 06:52:52;;;;;;;4.90;2.37;;;20.70;99.90;;;;;;5031292;28;20209;-70
2022/07/26 06:55:19;;;;;;;4.70;2.33;;;20.80;99.90;;;;;;5031039;28;20252;-70
2022/07/26 06:57:45;;;;;;;3.43;2.10;;;20.80;99.90;;;;;;5031089;28;20236;-70
2022/07/26 07:00:13;;;;;;;7.17;2.50;;;20.80;99.90;;;;;;5030969;28;20208;-70
2022/07/26 07:02:40;;;;;;;7.90;2.30;;;20.70;99.90;;;;;;5031251;28;20239;-70
2022/07/26 07:05:07;;;;;;;6.57;2.37;;;20.70;99.90;;;;;;5031307;28;20209;-70
2022/07/26 07:07:36;;;;;;;3.83;1.83;;;20.70;99.90;;;;;;5031334;28;20231;-70
2022/07/26 07:10:04;;;;;;;6.07;1.97;;;20.70;99.90;;;;;;5030401;28;20593;-70
2022/07/26 07:12:31;;;;;;;6.63;2.50;;;20.90;99.90;;;;;;5031132;28;20296;-70
2022/07/26 07:14:58;;;;;;;5.40;2.20;;;21.00;99.90;;;;;;5030950;28;20212;-70
2022/07/26 07:17:25;;;;;;;5.23;2.23;;;21.10;99.90;;;;;;5031196;28;20227;-69
2022/07/26 07:19:52;;;;;;;3.80;2.00;;;21.10;99.90;;;;;;5030627;28;20667;-70
2022/07/26 07:22:18;;;;;;;10.17;2.20;;;21.10;99.90;;;;;;5031014;28;20285;-69
2022/07/26 07:24:46;;;;;;;5.37;2.20;;;21.10;99.90;;;;;;5030798;28;20205;-69
2022/07/26 07:27:13;;;;;;;3.30;2.37;;;21.30;99.90;;;;;;5030500;28;20209;-70
2022/07/26 07:29:40;;;;;;;5.80;2.37;;;21.20;99.90;;;;;;5030673;28;20750;-70
2022/07/26 07:32:07;;;;;;;4.03;2.10;;;21.10;99.90;;;;;;5030288;28;20619;-70
2022/07/26 07:34:34;;;;;;;5.37;2.47;;;21.20;99.90;;;;;;5030741;28;20216;-70
2022/07/26 07:37:01;;;;;;;6.27;2.40;;;21.20;99.90;;;;;;5030431;28;20219;-70
2022/07/26 07:39:28;;;;;;;4.53;1.90;;;21.20;99.90;;;;;;5030863;28;20200;-69
2022/07/26 07:41:56;;;;;;;5.57;2.13;;;21.30;99.90;;;;;;5030171;28;20229;-70
2022/07/26 07:44:23;;;;;;;4.20;2.13;;;21.30;99.90;;;;;;5030644;28;20213;-70
2022/07/26 07:46:50;;;;;;;3.53;2.00;;;21.40;99.90;;;;;;5030271;28;20211;-69
2022/07/26 07:49:16;;;;;;;4.70;2.20;;;21.50;99.90;;;;;;5030582;28;20212;-69
2022/07/26 07:51:43;;;;;;;5.80;2.30;;;21.60;99.90;;;;;;5030286;28;20686;-70
2022/07/26 07:54:10;;;;;;;4.38;1.95;;;21.70;99.90;;;;;;5029879;28;20243;-70
2022/07/26 07:56:37;;;;;;;4.60;2.33;;;21.70;99.90;;;;;;5029908;28;20248;-70
2022/07/26 07:59:05;;;;;;;5.67;2.10;;;21.90;99.90;;;;;;5030256;28;20299;-70
2022/07/26 08:01:32;;;;;;;5.77;2.00;;;21.90;99.90;;;;;;5029543;28;20268;-70
2022/07/26 08:03:58;;;;;;;3.73;2.10;;;22.00;99.90;;;;;;5030111;28;20291;-70
2022/07/26 08:06:25;;;;;;;5.03;2.47;;;22.00;99.90;;;;;;5030214;28;20288;-70
2022/07/26 08:08:52;;;;;;;4.23;2.40;;;22.10;99.90;;;;;;5029944;28;20683;-70
2022/07/26 08:11:19;;;;;;;4.73;2.03;;;22.00;99.90;;;;;;5030118;28;20616;-70
2022/07/26 08:13:46;;;;;;;2.80;1.50;;;22.10;99.90;;;;;;5030264;28;20229;-70
2022/07/26 08:16:14;;;;;;;3.33;1.70;;;22.10;99.90;;;;;;5030153;28;20215;-70
2022/07/26 08:18:40;;;;;;;5.70;2.07;;;22.10;99.90;;;;;;5030108;28;20214;-70
2022/07/26 08:21:07;;;;;;;5.23;2.03;;;22.00;99.90;;;;;;5029928;28;20217;-70
2022/07/26 08:23:34;;;;;;;2.95;1.70;;;22.00;99.90;;;;;;5029887;28;20247;-70
2022/07/26 08:26:01;;;;;;;3.23;2.03;;;22.00;99.90;;;;;;5029379;28;20211;-70
2022/07/26 08:28:28;;;;;;;3.17;1.80;;;22.10;99.90;;;;;;5030041;28;20588;-70
2022/07/26 08:30:55;;;;;;;4.70;1.85;;;22.20;99.90;;;;;;5029688;28;20224;-70
2022/07/26 08:33:23;;;;;;;3.35;2.17;;;22.20;99.90;;;;;;5029966;28;20216;-70
2022/07/26 08:35:50;;;;;;;2.75;1.83;;;22.20;99.90;;;;;;5029117;28;20663;-70
2022/07/26 08:38:17;;;;;;;2.60;1.58;;;22.40;99.90;;;;;;5029507;28;20215;-70
2022/07/26 08:40:43;;;;;;;6.43;2.15;;;22.50;99.90;;;;;;5029351;28;20205;-70
2022/07/26 08:43:11;;;;;;;1.63;1.38;;;22.70;99.90;;;;;;5028912;28;20224;-70
2022/07/26 08:45:37;;;;;;;3.90;1.70;;;22.70;99.90;;;;;;5029449;28;20209;-70
2022/07/26 08:48:05;;;;;;;2.58;1.50;;;22.70;99.90;;;;;;5029397;28;20204;-70
2022/07/26 08:50:33;;;;;;;2.47;1.48;;;22.70;99.90;;;;;;5029308;28;20205;-70
2022/07/26 08:53:05;;;;;;;3.20;1.50;;;22.80;99.90;;;;;;5028673;28;20220;-70
2022/07/26 08:55:32;;;;;;;1.35;1.05;;;22.70;99.90;;;;;;5028730;28;20282;-70
2022/07/26 08:57:59;;;;;;;2.45;1.40;;;22.70;99.90;;;;;;5028964;28;20209;-70
2022/07/26 09:00:28;;;;;;;2.05;1.30;;;22.60;99.90;;;;;;5029058;28;20208;-70
2022/07/26 09:02:56;;;;;;;3.13;1.40;;;22.60;99.90;;;;;;5028865;28;20326;-70
2022/07/26 09:05:27;;;;;;;3.95;1.80;;;22.60;99.90;;;;;;5028959;28;20212;-70
2022/07/26 09:07:55;;;;;;;2.75;1.30;;;22.60;99.90;;;;;;5028772;28;20638;-70
2022/07/26 09:10:22;;;;;;;3.85;1.63;;;22.50;99.90;;;;;;5028721;28;20209;-69
2022/07/26 09:12:54;;;;;;;3.78;1.90;;;22.40;99.90;;;;;;5028314;28;20209;-70
2022/07/26 09:15:23;;;;;;;4.88;1.60;;;22.50;99.90;;;;;;5028829;28;20189;-70
2022/07/26 09:17:52;;;;;;;3.03;1.60;;;22.50;99.90;;;;;;5028776;28;20283;-70
2022/07/26 09:20:21;;;;;;;5.65;1.60;;;22.60;99.90;;;;;;5028719;28;20212;-70
2022/07/26 09:23:07;;;;;;;2.67;1.40;;;22.80;99.90;;;;;;5028510;28;20622;-70
2022/07/26 09:25:36;;;;;;;1.90;1.35;;;23.00;99.90;;;;;;5028274;28;20197;-70
2022/07/26 09:28:04;;;;;;;2.10;1.30;;;23.00;99.90;;;;;;5028481;28;20204;-70
2022/07/26 09:30:32;;;;;;;1.30;1.20;;;23.00;99.90;;;;;;5028438;28;20205;-70
2022/07/26 09:33:02;;;;;;;2.35;1.60;;;23.10;99.90;;;;;;5028480;28;20211;-70
2022/07/26 09:35:31;;;;;;;3.05;1.48;;;23.10;99.90;;;;;;5028565;28;20561;-70
2022/07/26 09:37:58;;;;;;;4.85;1.50;;;23.20;99.90;;;;;;5027965;28;20263;-70
2022/07/26 09:40:34;;;;;;;4.65;1.40;;;23.40;99.90;;;;;;5028023;28;20209;-70
2022/07/26 09:43:02;;;;;;;2.13;1.35;;;23.60;99.90;;;;;;5028346;28;20220;-70
2022/07/26 09:45:33;;;;;;;3.40;1.60;;;23.80;99.90;;;;;;5027993;28;20211;-70
2022/07/26 09:48:00;;;;;;;3.75;1.48;;;23.80;99.90;;;;;;5028161;28;20201;-70
2022/07/26 09:50:30;;;;;;;4.30;1.55;;;23.80;99.90;;;;;;5028063;28;20851;-70
2022/07/26 09:52:59;;;;;;;4.05;1.80;;;23.80;99.90;;;;;;5027664;28;20209;-70
2022/07/26 09:55:27;;;;;;;2.15;1.67;;;23.70;99.90;;;;;;5027862;28;20236;-70
2022/07/26 09:57:54;;;;;;;2.67;1.60;;;23.30;99.90;;;;;;5027630;28;20243;-70
2022/07/26 10:00:24;;;;;;;4.07;1.30;;;23.30;99.90;;;;;;5027892;28;20209;-70
2022/07/26 10:02:52;;;;;;;1.70;1.60;;;23.30;99.90;;;;;;5027699;28;20224;-70
2022/07/26 10:05:20;;;;;;;6.95;1.60;;;23.20;99.90;;;;;;5027504;28;20266;-70
2022/07/26 10:07:47;;;;;;;4.00;1.58;;;23.20;99.90;;;;;;5027689;28;20663;-70
2022/07/26 10:10:19;;;;;;;5.88;1.58;;;23.30;99.90;;;;;;5027654;28;20299;-70
2022/07/26 10:12:51;;;;;;;4.45;1.80;;;23.40;99.90;;;;;;5028200;28;20201;-70
2022/07/26 10:15:37;;;;;;;4.15;1.60;;;23.60;99.90;;;;;;5027935;28;20207;-70
2022/07/26 10:18:05;;;;;;;1.90;1.67;;;23.50;99.90;;;;;;5027946;28;20189;-70
2022/07/26 10:20:50;;;;;;;2.75;1.52;;;23.30;99.90;;;;;;5027903;28;20209;-70
2022/07/26 10:23:37;;;;;;;3.70;1.25;;;23.10;99.90;;;;;;5027686;28;20234;-70
2022/07/26 10:26:09;;;;;;;3.08;1.58;;;23.10;99.90;;;;;;5027051;28;20193;-70
2022/07/26 10:28:39;;;;;;;6.30;1.70;;;23.10;99.90;;;;;;5027854;28;20205;-70
2022/07/26 10:31:36;;;;;;;1.70;1.60;;;23.10;99.90;;;;;;5027738;28;20213;-70
2022/07/26 10:34:03;;;;;;;2.15;1.63;;;23.10;99.90;;;;;;4947152;29;20204;-69
2022/07/26 10:36:33;;;;;;;4.38;1.52;;;23.40;99.90;;;;;;5008386;28;20216;-70
2022/07/26 10:39:09;;;;;;;4.25;1.95;;;23.60;99.90;;;;;;5027321;28;20722;-70
2022/07/26 10:41:41;;;;;;;4.95;1.58;;;23.80;99.90;;;;;;5027104;28;20655;-70
2022/07/26 10:44:22;;;;;;;5.78;1.85;;;23.70;99.90;;;;;;5027646;28;20216;-70
2022/07/26 10:47:11;;;;;;;6.53;1.80;;;23.70;99.90;;;;;;5027572;28;20204;-70
2022/07/26 10:49:40;;;;;;;3.50;2.00;;;23.70;99.90;;;;;;5022011;28;20205;-70
2022/07/26 10:52:12;;;;;;;4.22;1.90;;;23.50;99.90;;;;;;5027369;28;20672;-70
2022/07/26 10:55:16;;;;;;;2.38;1.50;;;23.40;99.90;;;;;;5027499;28;20252;-70
2022/07/26 10:57:48;;;;;;;4.55;1.80;;;23.40;99.90;;;;;;5027256;28;20240;-70
2022/07/26 11:00:26;;;;;;;2.63;1.48;;;23.60;99.90;;;;;;5027466;28;20648;-70
2022/07/26 11:02:56;;;;;;;4.93;1.55;;;23.70;99.90;;;;;;5027264;28;20220;-70
2022/07/26 11:05:27;;;;;;;3.15;1.48;;;23.80;99.90;;;;;;5027583;28;20251;-71
2022/07/26 11:08:03;;;;;;;3.53;1.60;;;24.10;99.90;;;;;;5027308;28;20647;-70
2022/07/26 11:10:32;;;;;;;7.97;1.98;;;24.10;99.90;;;;;;5027614;28;20247;-70
2022/07/26 11:13:06;;;;;;;5.72;1.60;;;24.20;99.90;;;;;;5027620;28;20296;-71
2022/07/26 11:15:36;;;;;;;5.28;1.67;;;24.30;99.90;;;;;;5027617;28;20209;-70
2022/07/26 11:18:07;;;;;;;2.08;1.40;;;24.50;99.90;;;;;;5027205;28;20208;-70
2022/07/26 11:20:34;;;;;;;3.33;1.58;;;24.40;99.90;;;;;;5027447;28;20208;-70
2022/07/26 11:23:01;;;;;;;2.00;1.30;;;24.30;99.90;;;;;;5026850;28;20738;-70
2022/07/26 11:25:28;;;;;;;3.40;1.85;;;24.20;99.90;;;;;;5026843;28;20216;-70
2022/07/26 11:28:00;;;;;;;4.15;1.83;;;24.10;99.90;;;;;;5027136;28;20212;-70
2022/07/26 11:30:27;;;;;;;5.28;1.58;;;24.10;99.90;;;;;;5027464;28;20205;-70
2022/07/26 11:32:57;;;;;;;6.85;1.85;;;24.00;99.90;;;;;;5026924;28;20660;-70
2022/07/26 11:35:25;;;;;;;6.15;1.90;;;24.00;99.90;;;;;;5026871;28;20616;-70
2022/07/26 11:37:54;;;;;;;2.45;1.77;;;24.00;99.90;;;;;;5029812;28;20259;-70
2022/07/26 11:40:42;;;;;;;1.40;1.30;;;23.90;99.90;;;;;;5030286;28;20688;-70
2022/07/26 11:43:09;;;;;;;3.05;1.50;;;23.80;99.90;;;;;;5030631;28;20228;-70
2022/07/26 11:45:35;;;;;;;2.65;1.63;;;23.80;99.90;;;;;;5030583;28;20205;-70
2022/07/26 11:48:05;;;;;;;3.15;1.58;;;23.80;99.90;;;;;;5030078;28;20659;-70
2022/07/26 11:50:32;;;;;;;4.28;1.90;;;23.80;99.90;;;;;;5030508;28;20259;-70
2022/07/26 11:52:59;;;;;;;3.05;1.70;;;23.80;99.90;;;;;;5030359;28;20216;-70
2022/07/26 11:55:27;;;;;;;2.42;1.90;;;23.70;99.90;;;;;;5029877;28;20236;-70
2022/07/26 11:57:54;;;;;;;1.95;1.77;;;23.70;99.90;;;;;;5029796;28;20232;-70
2022/07/26 12:00:22;;;;;;;4.50;1.70;;;23.70;99.90;;;;;;5030232;28;20205;-70
2022/07/26 12:02:49;;;;;;;8.18;2.15;;;23.70;99.90;;;;;;5030249;28;20238;-70
2022/07/26 12:05:19;;;;;;;2.60;2.10;;;23.10;99.90;;;;;;5030183;28;20204;-70
2022/07/26 12:07:56;;;;;;;5.93;2.43;;;21.70;99.90;;;;;;5030477;28;20199;-70
2022/07/26 12:10:24;;;;;;;8.20;2.87;;;21.30;99.90;;;;;;5029818;28;20215;-70
2022/07/26 12:13:05;;;;;;;2.60;2.40;;;20.90;99.90;;;;;;5030117;28;20220;-70
2022/07/26 12:15:44;;;;;;;4.93;3.10;;;20.60;99.90;;;;;;5030171;28;20204;-70
2022/07/26 12:18:10;;;;;;;4.60;3.00;;;20.00;99.90;;;;;;5030205;28;20193;-70
2022/07/26 12:20:39;;;;;;;6.77;3.20;;;19.80;99.90;;;;;;5030073;28;20208;-70
2022/07/26 12:23:05;;;;;;;2.93;2.60;;;19.70;99.90;;;;;;5029568;28;20225;-70
2022/07/26 12:25:36;;;;;;;3.53;2.87;;;19.70;99.90;;;;;;5029805;28;20201;-70
2022/07/26 12:28:05;;;;;;;4.57;2.67;;;19.70;99.90;;;;;;5029489;28;20200;-70
2022/07/26 12:30:35;;;;;;;3.23;2.17;;;19.80;99.90;;;;;;5029892;28;20205;-70
2022/07/26 12:33:02;;;;;;;2.83;2.53;;;19.90;99.90;;;;;;5029923;28;20232;-70
2022/07/26 12:35:32;;;;;;;3.47;2.23;;;20.10;99.90;;;;;;5029620;28;20274;-69
2022/07/26 12:38:01;;;;;;;2.83;2.10;;;20.20;99.90;;;;;;5029821;28;20208;-70
2022/07/26 12:40:30;;;;;;;3.63;2.00;;;20.20;99.90;;;;;;5029134;28;20292;-69
2022/07/26 12:42:58;;;;;;;1.93;1.83;;;20.20;99.90;;;;;;5029347;28;20228;-70
2022/07/26 12:45:25;;;;;;;2.83;1.73;;;20.10;99.90;;;;;;5029485;28;20291;-69
2022/07/26 12:47:55;;;;;;;3.97;1.80;;;20.10;99.90;;;;;;5028905;28;20288;-70
2022/07/26 12:50:23;;;;;;;1.50;1.40;;;20.00;99.90;;;;;;5029386;28;20213;-69
2022/07/26 12:52:50;;;;;;;1.80;1.70;;;19.90;99.90;;;;;;5029124;28;20576;-70
2022/07/26 12:55:20;;;;;;;1.43;1.33;;;20.10;99.90;;;;;;5028723;28;20715;-70
2022/07/26 12:57:47;;;;;;;1.50;1.23;;;20.20;99.90;;;;;;5028918;28;20247;-70